createdAt,value
2023-04-12T00:04:15.487Z,96458.00
2023-04-12T00:09:16.346Z,96447.00
2023-04-12T00:14:17.299Z,96434.00
2023-04-12T00:19:18.081Z,96420.00
2023-04-12T00:24:18.867Z,96415.00
2023-04-12T00:29:20.457Z,96409.00
2023-04-12T00:34:22.207Z,96399.00
2023-04-12T00:39:22.972Z,96397.00
2023-04-12T00:44:23.877Z,96392.00
2023-04-12T00:49:29.904Z,96379.00
2023-04-12T00:54:32.578Z,96369.00
2023-04-12T00:59:33.328Z,96356.00
2023-04-12T01:04:37.146Z,96356.00
2023-04-12T01:10:26.477Z,96338.00
2023-04-12T01:15:34.359Z,96322.00
2023-04-12T01:20:43.865Z,96309.00
2023-04-12T01:26:21.013Z,96293.00
2023-04-12T01:31:25.188Z,96286.00
2023-04-12T01:36:27.492Z,96277.00
2023-04-12T01:41:28.522Z,96272.00
2023-04-12T01:46:31.610Z,96247.00
2023-04-12T01:52:20.291Z,96242.00
2023-04-12T01:57:22.988Z,96241.00
2023-04-12T02:02:24.906Z,96226.00
2023-04-12T02:07:26.382Z,96225.00
2023-04-12T02:12:27.453Z,96219.00
2023-04-12T02:17:29.708Z,96198.00
2023-04-12T02:22:30.793Z,96188.00
2023-04-12T02:27:32.010Z,96180.00
2023-04-12T02:32:44.348Z,96178.00
2023-04-12T02:37:48.374Z,96165.00
2023-04-12T02:42:49.249Z,96149.00
2023-04-12T02:47:50.264Z,96135.00
2023-04-12T02:52:52.719Z,96132.00
2023-04-12T02:57:54.280Z,96123.00
2023-04-12T03:02:58.147Z,96109.00
2023-04-12T03:08:01.757Z,96098.00
2023-04-12T03:13:11.709Z,96091.00
2023-04-12T03:18:16.553Z,96082.00
2023-04-12T03:23:20.026Z,96069.00
2023-04-12T03:28:24.823Z,96062.00
2023-04-12T03:33:27.525Z,96052.00
2023-04-12T03:38:33.335Z,96037.00
2023-04-12T03:43:36.551Z,96021.00
2023-04-12T03:48:41.481Z,96008.00
2023-04-12T03:53:43.062Z,95993.00
2023-04-12T03:58:47.795Z,95979.00
2023-04-12T04:03:50.543Z,95966.00
2023-04-12T04:08:58.930Z,95952.00
2023-04-12T04:14:01.197Z,95943.00
2023-04-12T04:19:02.499Z,95936.00
2023-04-12T04:24:03.783Z,95922.00
2023-04-12T04:29:09.062Z,95924.00
2023-04-12T04:34:13.040Z,95904.00
2023-04-12T04:39:18.819Z,95896.00
2023-04-12T04:44:20.972Z,95898.00
2023-04-12T04:49:27.048Z,95894.00
2023-04-12T04:54:30.274Z,95885.00
2023-04-12T04:59:32.822Z,95878.00
2023-04-12T05:04:45.815Z,95870.00
2023-04-12T05:09:48.765Z,95855.00
2023-04-12T05:14:51.906Z,95835.00
2023-04-12T05:19:53.457Z,95840.00
2023-04-12T05:24:55.358Z,95836.00
2023-04-12T05:29:57.218Z,95811.00
2023-04-12T05:34:58.557Z,95808.00
2023-04-12T05:39:59.855Z,95798.00
2023-04-12T05:45:01.086Z,95788.00
2023-04-12T05:50:02.246Z,95779.00
2023-04-12T05:55:04.642Z,95768.00
2023-04-12T06:00:16.761Z,95751.00
2023-04-12T06:05:18.590Z,95761.00
2023-04-12T06:10:20.505Z,95745.00
2023-04-12T06:15:29.159Z,95737.00
2023-04-12T06:20:45.694Z,95736.00
2023-04-12T06:25:49.712Z,95723.00
2023-04-12T06:30:50.819Z,95715.00
2023-04-12T06:35:52.339Z,95704.00
2023-04-12T06:40:53.724Z,95691.00
2023-04-12T06:45:56.281Z,95681.00
2023-04-12T06:50:57.154Z,95669.00
2023-04-12T06:55:57.932Z,95656.00
2023-04-12T07:01:05.836Z,95647.00
2023-04-12T07:06:17.756Z,95646.00
2023-04-12T07:11:25.449Z,95623.00
2023-04-12T07:16:26.922Z,95629.00
2023-04-12T07:21:28.314Z,95613.00
2023-04-12T07:26:30.512Z,95617.00
2023-04-12T07:31:31.404Z,95599.00
2023-04-12T07:36:32.152Z,95597.00
2023-04-12T07:41:32.966Z,95598.00
2023-04-12T07:46:33.842Z,95590.00
2023-04-12T07:51:34.876Z,95586.00
2023-04-12T07:56:35.755Z,95576.00
2023-04-12T08:01:36.764Z,95569.00
2023-04-12T08:06:37.504Z,95567.00
2023-04-12T08:11:38.323Z,95563.00
2023-04-12T08:16:39.177Z,95555.00
2023-04-12T08:21:40.447Z,95548.00
2023-04-12T08:26:41.213Z,95543.00
2023-04-12T08:31:42.183Z,95549.00
2023-04-12T08:36:43.020Z,95538.00
2023-04-12T08:41:44.638Z,95536.00
2023-04-12T08:46:46.522Z,95534.00
2023-04-12T08:51:47.772Z,95527.00
2023-04-12T08:56:48.934Z,95519.00
2023-04-12T09:01:50.512Z,95513.00
2023-04-12T09:06:51.836Z,95511.00
2023-04-12T09:12:06.658Z,95501.00
2023-04-12T09:17:24.375Z,95486.00
2023-04-12T09:22:35.971Z,95475.00
2023-04-12T09:27:50.878Z,95463.00
2023-04-12T09:32:53.829Z,95463.00
2023-04-12T09:38:06.092Z,95457.00
2023-04-12T09:43:07.777Z,95454.00
2023-04-12T09:48:18.325Z,95451.00
2023-04-12T09:53:19.369Z,95442.00
2023-04-12T09:58:21.275Z,95446.00
2023-04-12T10:03:22.318Z,95433.00
2023-04-12T10:08:23.513Z,95429.00
2023-04-12T10:13:26.305Z,95420.00
2023-04-12T10:18:27.977Z,95426.00
2023-04-12T10:23:32.571Z,95417.00
2023-04-12T10:28:33.372Z,95409.00
2023-04-12T10:33:37.576Z,95403.00
2023-04-12T10:38:47.936Z,95400.00
2023-04-12T10:43:51.459Z,95394.00
2023-04-12T10:48:53.480Z,95392.00
2023-04-12T10:54:34.491Z,95388.00
2023-04-12T11:02:13.236Z,95389.00
2023-04-12T11:07:17.728Z,95385.00
2023-04-12T11:12:40.130Z,95382.00
2023-04-12T11:17:41.394Z,95376.00
2023-04-12T11:22:42.554Z,95366.00
2023-04-12T11:27:51.953Z,95374.00
2023-04-12T11:32:52.839Z,95371.00
2023-04-12T11:37:56.549Z,95369.00
2023-04-12T11:42:59.212Z,95371.00
2023-04-12T11:48:00.196Z,95368.00
2023-04-12T11:53:13.580Z,95384.00
2023-04-12T11:58:14.503Z,95387.00
2023-04-12T12:03:15.782Z,95371.00
2023-04-12T12:08:18.118Z,95370.00
2023-04-12T12:13:18.921Z,95367.00
2023-04-12T12:18:25.741Z,95390.00
2023-04-12T12:23:31.061Z,95377.00
2023-04-12T12:28:39.196Z,95357.00
2023-04-12T12:33:46.490Z,95345.00
2023-04-12T12:38:52.336Z,95365.00
2023-04-12T12:43:53.174Z,95374.00
2023-04-12T12:48:54.021Z,95376.00
2023-04-12T12:53:54.815Z,95387.00
2023-04-12T12:58:56.033Z,95379.00
2023-04-12T13:03:58.213Z,95379.00
2023-04-12T13:08:59.272Z,95373.00
2023-04-12T13:14:00.296Z,95386.00
2023-04-12T13:19:01.338Z,95374.00
2023-04-12T13:24:02.184Z,95371.00
2023-04-12T13:29:03.650Z,95384.00
2023-04-12T13:34:04.592Z,95366.00
2023-04-12T13:39:05.404Z,95349.00
2023-04-12T13:44:06.146Z,95352.00
2023-04-12T13:49:07.069Z,95351.00
2023-04-12T13:54:07.810Z,95340.00
2023-04-12T13:59:08.845Z,95344.00
2023-04-12T14:04:09.644Z,95354.00
2023-04-12T14:09:27.526Z,95362.00
2023-04-12T14:14:28.276Z,95368.00
2023-04-12T14:19:29.076Z,95369.00
2023-04-12T14:24:30.534Z,95378.00
2023-04-12T14:29:31.502Z,95374.00
2023-04-12T14:34:33.141Z,95387.00
2023-04-12T14:39:34.982Z,95402.00
2023-04-12T14:44:35.970Z,95403.00
2023-04-12T14:49:37.163Z,95420.00
2023-04-12T14:54:38.063Z,95388.00
2023-04-12T14:59:39.056Z,95389.00
2023-04-12T15:04:40.057Z,95372.00
2023-04-12T15:09:43.354Z,95371.00
2023-04-12T15:14:44.147Z,95353.00
2023-04-12T15:19:45.216Z,95358.00
2023-04-12T15:24:46.009Z,95357.00
2023-04-12T15:29:48.590Z,95374.00
2023-04-12T15:34:50.352Z,95378.00
2023-04-12T15:39:51.666Z,95376.00
2023-04-12T15:44:52.517Z,95380.00
2023-04-12T15:49:53.712Z,95390.00
2023-04-12T15:54:54.807Z,95403.00
2023-04-12T15:59:58.676Z,95408.00
2023-04-12T16:04:59.736Z,95409.00
2023-04-12T16:10:02.578Z,95421.00
2023-04-12T16:15:04.240Z,95414.00
2023-04-12T16:20:05.930Z,95416.00
2023-04-12T16:25:07.668Z,95415.00
2023-04-12T16:30:11.562Z,95423.00
2023-04-12T16:35:14.095Z,95415.00
2023-04-12T16:40:16.410Z,95418.00
2023-04-12T16:45:17.311Z,95427.00
2023-04-12T16:50:18.244Z,95421.00
2023-04-12T16:55:19.180Z,95433.00
2023-04-12T17:00:21.535Z,95440.00
2023-04-12T17:05:23.899Z,95447.00
2023-04-12T17:10:25.166Z,95444.00
2023-04-12T17:15:26.886Z,95451.00
2023-04-12T17:20:28.083Z,95454.00
2023-04-12T17:25:30.583Z,95458.00
2023-04-12T17:30:31.652Z,95460.00
2023-04-12T17:35:33.602Z,95458.00
2023-04-12T17:40:34.479Z,95470.00
2023-04-12T17:45:35.511Z,95479.00
2023-04-12T17:50:36.263Z,95484.00
2023-04-12T17:55:37.975Z,95491.00
2023-04-12T18:00:38.855Z,95496.00
2023-04-12T18:05:40.214Z,95523.00
2023-04-12T18:10:41.396Z,95590.00
2023-04-12T18:15:42.236Z,95634.00
2023-04-12T18:20:43.000Z,95659.00
2023-04-12T18:25:44.621Z,95644.00
2023-04-12T18:30:45.642Z,95653.00
2023-04-12T18:35:46.800Z,95652.00
2023-04-12T18:40:47.606Z,95633.00
2023-04-12T18:45:48.557Z,95619.00
2023-04-12T18:50:49.401Z,95590.00
2023-04-12T18:55:50.289Z,95594.00
2023-04-12T19:00:51.238Z,95588.00
2023-04-12T19:05:55.422Z,95594.00
2023-04-12T19:10:56.209Z,95599.00
2023-04-12T19:15:58.367Z,95611.00
2023-04-12T19:20:59.256Z,95618.00
2023-04-12T19:26:00.425Z,95620.00
2023-04-12T19:31:09.673Z,95625.00
2023-04-12T19:36:12.054Z,95633.00
2023-04-12T19:41:13.310Z,95633.00
2023-04-12T19:46:14.389Z,95620.00
2023-04-12T19:51:15.334Z,95629.00
2023-04-12T19:56:16.178Z,95633.00
2023-04-12T20:01:17.082Z,95639.00
2023-04-12T20:06:17.868Z,95657.00
2023-04-12T20:11:20.666Z,95660.00
2023-04-12T20:16:23.416Z,95666.00
2023-04-12T20:21:24.455Z,95672.00
2023-04-12T20:26:30.820Z,95667.00
2023-04-12T20:31:32.298Z,95660.00
2023-04-12T20:36:33.241Z,95656.00
2023-04-12T20:41:37.600Z,95653.00
2023-04-12T20:46:38.412Z,95654.00
2023-04-12T20:51:39.787Z,95647.00
2023-04-12T20:56:41.150Z,95640.00
2023-04-12T21:01:44.956Z,95648.00
2023-04-12T21:06:47.871Z,95647.00
2023-04-12T21:11:50.203Z,95651.00
2023-04-12T21:16:51.716Z,95660.00
2023-04-12T21:21:52.687Z,95658.00
2023-04-12T21:26:57.111Z,95674.00
2023-04-12T21:31:58.055Z,95672.00
2023-04-12T21:37:01.231Z,95679.00
2023-04-12T21:42:02.570Z,95681.00
2023-04-12T21:47:03.426Z,95685.00
2023-04-12T21:52:04.229Z,95682.00
2023-04-12T21:57:05.400Z,95678.00
2023-04-12T22:02:07.419Z,95688.00
2023-04-12T22:07:11.766Z,95695.00
2023-04-12T22:12:12.682Z,95701.00
2023-04-12T22:17:13.919Z,95702.00
2023-04-12T22:22:15.285Z,95702.00
2023-04-12T22:27:16.621Z,95709.00
2023-04-12T22:32:17.458Z,95709.00
2023-04-12T22:37:18.729Z,95712.00
2023-04-12T22:42:19.679Z,95712.00
2023-04-12T22:47:20.477Z,95719.00
2023-04-12T22:52:21.244Z,95720.00
2023-04-12T22:57:22.912Z,95716.00
2023-04-12T23:02:24.193Z,95719.00
2023-04-12T23:07:26.192Z,95722.00
2023-04-12T23:12:26.962Z,95714.00
2023-04-12T23:17:28.468Z,95718.00
2023-04-12T23:22:44.459Z,95714.00
2023-04-12T23:27:55.740Z,95717.00
2023-04-12T23:32:57.521Z,95694.00
2023-04-12T23:37:58.314Z,95680.00
2023-04-12T23:42:59.683Z,95685.00
2023-04-12T23:48:00.596Z,95682.00
2023-04-12T23:53:01.436Z,95670.00
2023-04-12T23:58:02.391Z,95666.00
